Airport View

Enter AWOS ICAO identifier for current METAR.

ex. KFNL

KTVY 171250Z AUTO 19006KT 10SM CLR 00/M03 A3037 RMK AO2

17 Nov 2019 12:50

Frequency: 119.725

Phone: 435-882-6648

Other Area AWOS: KU42 - KSLC - KHIF - KPVU

TAF KSLC 171120Z 1712/1818 15004KT P6SM SCT200 FM171900 34006KT P6SM SCT200 FM180300 15006KT P6SM FEW200